Time;durP1;ratioP1;P1;durP2;ratioP2;P2;SDS_P1;SDS_P2;PMS_P1;PMS_P2;Temp;Humidity;BMP_temperature;BMP_pressure;BME280_temperature;BME280_humidity;BME280_pressure;Samples;Min_cycle;Max_cycle;Signal;HPM_P1;HPM_P2
2021/08/28 00:01:28;;;;;;;3.22;1.70;;;10.60;99.90;;;;;;5108288;28;19909;-69
2021/08/28 00:03:54;;;;;;;;;;;10.60;99.90;;;;;;5109046;28;20036;-69
2021/08/28 00:06:19;;;;;;;2.50;1.70;;;10.50;99.90;;;;;;5090177;28;20000;-70
2021/08/28 00:08:45;;;;;;;;;;;10.50;99.90;;;;;;5108989;28;20484;-69
2021/08/28 00:11:11;;;;;;;3.67;1.98;;;10.50;99.90;;;;;;5108324;28;20063;-69
2021/08/28 00:13:36;;;;;;;;;;;10.50;99.90;;;;;;5109043;28;20497;-70
2021/08/28 00:16:02;;;;;;;3.97;1.95;;;10.50;99.90;;;;;;5108577;28;19907;-69
2021/08/28 00:18:27;;;;;;;;;;;10.40;99.90;;;;;;5108892;28;20038;-69
2021/08/28 00:20:53;;;;;;;5.55;2.10;;;10.40;99.90;;;;;;5108243;28;19915;-69
2021/08/28 00:23:19;;;;;;;;;;;10.40;99.90;;;;;;5109679;28;20028;-69
2021/08/28 00:25:44;;;;;;;4.45;1.98;;;10.40;99.90;;;;;;5112191;28;19911;-68
2021/08/28 00:28:10;;;;;;;;;;;10.40;99.90;;;;;;5112768;28;20019;-69
2021/08/28 00:30:35;;;;;;;4.38;1.50;;;10.30;99.90;;;;;;5112054;28;19908;-70
2021/08/28 00:33:11;;;;;;;;;;;10.30;99.90;;;;;;5112554;28;20085;-70
2021/08/28 00:35:37;;;;;;;3.17;1.40;;;10.30;99.90;;;;;;5112102;28;20403;-69
2021/08/28 00:38:03;;;;;;;;;;;10.20;99.90;;;;;;5112605;28;20092;-69
2021/08/28 00:40:29;;;;;;;2.88;1.15;;;10.20;99.90;;;;;;5112081;28;19920;-70
2021/08/28 00:42:54;;;;;;;;;;;10.20;99.90;;;;;;5112153;28;20032;-69
2021/08/28 00:45:34;;;;;;;3.35;0.93;;;10.20;99.90;;;;;;5111881;28;20068;-69
2021/08/28 00:48:07;;;;;;;6.00;1.30;;;10.20;99.90;;;;;;5111801;28;20020;-68
2021/08/28 00:50:35;;;;;;;2.28;1.30;;;10.10;99.90;;;;;;5093566;28;20032;-69
2021/08/28 00:53:03;;;;;;;2.05;1.23;;;10.10;99.90;;;;;;5111651;28;20020;-69
2021/08/28 00:55:34;;;;;;;1.58;0.93;;;10.10;99.90;;;;;;5111684;28;20428;-69
2021/08/28 00:58:00;;;;;;;1.73;1.15;;;10.20;99.90;;;;;;5111881;28;20019;-70
2021/08/28 01:00:26;;;;;;;1.60;1.10;;;10.10;99.90;;;;;;5093191;28;20024;-70
2021/08/28 01:02:54;;;;;;;2.55;1.58;;;10.10;99.90;;;;;;5111562;28;20052;-70
2021/08/28 01:05:33;;;;;;;3.28;1.50;;;10.10;99.90;;;;;;5093122;28;20031;-69
2021/08/28 01:08:20;;;;;;;4.88;1.58;;;10.10;99.90;;;;;;5111365;28;20087;-70
2021/08/28 01:11:14;;;;;;;5.35;1.55;;;10.10;99.90;;;;;;5111427;28;20484;-70
2021/08/28 01:13:43;;;;;;;3.42;1.60;;;10.10;99.90;;;;;;5085490;28;20037;-70
2021/08/28 01:16:10;;;;;;;3.22;1.75;;;10.10;99.90;;;;;;5111244;28;20084;-70
2021/08/28 01:18:39;;;;;;;2.40;1.42;;;10.10;99.90;;;;;;5105621;28;20542;-70
2021/08/28 01:21:15;;;;;;;3.50;1.13;;;10.10;99.90;;;;;;5110895;28;20066;-69
2021/08/28 01:23:41;;;;;;;5.97;1.77;;;10.10;99.90;;;;;;5111362;28;20086;-70
2021/08/28 01:26:12;;;;;;;2.38;1.50;;;10.20;99.90;;;;;;5111135;28;20037;-69
2021/08/28 01:28:53;;;;;;;2.03;1.23;;;10.20;99.90;;;;;;5111003;28;20023;-69
2021/08/28 01:31:20;;;;;;;4.22;1.70;;;10.20;99.90;;;;;;5110841;27;20031;-70
2021/08/28 01:33:48;;;;;;;3.70;1.60;;;10.10;99.90;;;;;;5110890;28;20050;-70
2021/08/28 01:36:16;;;;;;;2.55;1.50;;;10.20;99.90;;;;;;5110170;28;20047;-70
2021/08/28 01:38:43;;;;;;;3.60;1.25;;;10.10;99.90;;;;;;5110726;28;20031;-70
2021/08/28 01:41:09;;;;;;;2.70;1.23;;;10.10;99.90;;;;;;5092317;28;20032;-70
2021/08/28 01:43:34;;;;;;;;;;;10.10;99.90;;;;;;5111095;28;20537;-70
2021/08/28 01:46:00;;;;;;;2.67;1.73;;;10.10;99.90;;;;;;5110690;28;19949;-70
2021/08/28 01:48:26;;;;;;;;;;;10.10;99.90;;;;;;5111005;28;20440;-70
2021/08/28 01:50:53;;;;;;;2.55;1.30;;;10.00;99.90;;;;;;5110585;28;19921;-70
2021/08/28 01:53:19;;;;;;;3.22;1.60;;;10.10;99.90;;;;;;5110755;28;20047;-70
2021/08/28 01:55:45;;;;;;;;;;;10.10;99.90;;;;;;5110942;28;20067;-71
2021/08/28 01:58:11;;;;;;;2.40;1.80;;;10.00;99.90;;;;;;5110581;28;20423;-70
2021/08/28 02:00:38;;;;;;;3.22;1.80;;;10.00;99.90;;;;;;5110491;28;20106;-70
2021/08/28 02:03:03;;;;;;;2.63;1.40;;;10.00;99.90;;;;;;5110278;28;20053;-70
2021/08/28 02:05:31;;;;;;;;;;;9.90;99.90;;;;;;5110978;28;20345;-70
2021/08/28 02:08:04;;;;;;;2.90;1.45;;;9.90;99.90;;;;;;5110519;28;19969;-70
2021/08/28 02:10:53;;;;;;;2.83;1.70;;;9.80;99.90;;;;;;5110304;28;20394;-71
2021/08/28 02:13:31;;;;;;;2.75;1.60;;;9.80;99.90;;;;;;5110308;28;20031;-71
2021/08/28 02:16:09;;;;;;;2.70;1.23;;;9.70;99.90;;;;;;5110110;28;20046;-70
2021/08/28 02:18:52;;;;;;;2.83;1.33;;;9.70;99.90;;;;;;5110242;28;20107;-69
2021/08/28 02:21:20;;;;;;;1.77;1.17;;;9.70;99.90;;;;;;5109837;28;20556;-70
2021/08/28 02:23:49;;;;;;;1.90;1.38;;;9.70;99.90;;;;;;5109883;28;20023;-70
2021/08/28 02:26:22;;;;;;;7.15;1.60;;;9.60;99.90;;;;;;5109941;28;20054;-69
2021/08/28 02:28:52;;;;;;;2.10;1.58;;;9.60;99.90;;;;;;5109704;28;20028;-67
2021/08/28 02:31:20;;;;;;;7.93;1.58;;;9.60;99.90;;;;;;5107983;28;20024;-67
2021/08/28 02:33:48;;;;;;;6.78;1.48;;;9.50;99.90;;;;;;5109704;28;20034;-69
2021/08/28 02:36:14;;;;;;;4.05;1.50;;;9.50;99.90;;;;;;5108033;28;20034;-69
2021/08/28 02:38:42;;;;;;;2.90;1.45;;;9.50;99.90;;;;;;5109603;28;20035;-69
2021/08/28 02:41:07;;;;;;;2.20;1.40;;;9.50;99.90;;;;;;5109534;28;20562;-68
2021/08/28 02:43:34;;;;;;;;;;;9.50;99.90;;;;;;5110145;28;20076;-68
2021/08/28 02:46:01;;;;;;;2.85;1.35;;;9.50;99.90;;;;;;5109437;28;19911;-69
2021/08/28 02:48:30;;;;;;;1.58;1.30;;;9.50;99.90;;;;;;5108880;28;20514;-68
2021/08/28 02:51:00;;;;;;;3.75;1.50;;;9.60;99.90;;;;;;5109200;28;20035;-68
2021/08/28 02:53:28;;;;;;;2.25;1.42;;;9.60;99.90;;;;;;5109319;28;20503;-69
2021/08/28 02:55:55;;;;;;;2.88;1.50;;;9.60;99.90;;;;;;5091245;28;20566;-68
2021/08/28 02:58:21;;;;;;;6.18;1.75;;;9.60;99.90;;;;;;5109494;28;20502;-68
2021/08/28 03:00:48;;;;;;;4.32;2.13;;;9.60;99.90;;;;;;5109275;28;20034;-70
2021/08/28 03:03:15;;;;;;;6.50;1.50;;;9.60;99.90;;;;;;5109213;28;20766;-69
2021/08/28 03:05:44;;;;;;;3.42;1.55;;;9.60;99.90;;;;;;5109247;28;20043;-68
2021/08/28 03:08:11;;;;;;;4.43;1.38;;;9.60;99.90;;;;;;5109239;28;20177;-69
2021/08/28 03:10:37;;;;;;;2.67;1.63;;;9.60;99.90;;;;;;5109170;28;20063;-70
2021/08/28 03:13:03;;;;;;;2.60;1.27;;;9.60;99.90;;;;;;5108927;28;20026;-68
2021/08/28 03:15:29;;;;;;;;;;;9.50;99.90;;;;;;5109504;28;20039;-69
2021/08/28 03:17:55;;;;;;;2.83;1.75;;;9.50;99.90;;;;;;5109109;28;19988;-68
2021/08/28 03:20:21;;;;;;;;;;;9.50;99.90;;;;;;5109403;28;20153;-68
2021/08/28 03:22:48;;;;;;;4.07;1.20;;;9.50;99.90;;;;;;5109010;28;20010;-69
2021/08/28 03:25:16;;;;;;;2.38;1.52;;;9.50;99.90;;;;;;5090502;28;20503;-69
2021/08/28 03:27:42;;;;;;;2.42;1.70;;;9.50;99.90;;;;;;5108894;28;20023;-68
2021/08/28 03:30:11;;;;;;;6.60;1.83;;;9.50;99.90;;;;;;5108917;28;20028;-69
2021/08/28 03:32:39;;;;;;;2.47;1.38;;;9.50;99.90;;;;;;5108845;28;20027;-69
2021/08/28 03:35:09;;;;;;;3.10;1.50;;;9.50;99.90;;;;;;5108727;28;20121;-69
2021/08/28 03:37:36;;;;;;;2.55;1.63;;;9.50;99.90;;;;;;5108854;28;20480;-68
2021/08/28 03:40:02;;;;;;;6.00;1.60;;;9.50;99.90;;;;;;5108863;28;20027;-69
2021/08/28 03:42:27;;;;;;;;;;;9.50;99.90;;;;;;5109341;28;20348;-69
2021/08/28 03:44:57;;;;;;;1.85;1.27;;;9.50;99.90;;;;;;5108769;28;19914;-69
2021/08/28 03:47:23;;;;;;;1.83;1.45;;;9.50;99.90;;;;;;5108877;28;20058;-69
2021/08/28 03:49:48;;;;;;;;;;;9.50;99.90;;;;;;5109096;28;20496;-68
2021/08/28 03:52:14;;;;;;;3.17;1.20;;;9.60;99.90;;;;;;5108741;28;19904;-69
2021/08/28 03:54:39;;;;;;;;;;;9.60;99.90;;;;;;5090648;28;20032;-68
2021/08/28 03:57:05;;;;;;;1.35;0.80;;;9.60;99.90;;;;;;5108591;28;19914;-68
2021/08/28 03:59:31;;;;;;;;;;;9.60;99.90;;;;;;5111586;28;20031;-69
2021/08/28 04:01:56;;;;;;;6.03;1.13;;;9.60;99.90;;;;;;5094357;28;20279;-69
2021/08/28 04:04:22;;;;;;;;;;;9.60;99.90;;;;;;5113071;28;20028;-69
2021/08/28 04:06:47;;;;;;;1.90;1.23;;;9.70;99.90;;;;;;5094327;28;20432;-69
2021/08/28 04:09:13;;;;;;;;;;;9.70;99.90;;;;;;5112831;28;20039;-68
2021/08/28 04:11:39;;;;;;;3.13;1.38;;;9.70;99.90;;;;;;5112542;28;19916;-69
2021/08/28 04:14:04;;;;;;;;;;;9.70;99.90;;;;;;5112917;28;20038;-69
2021/08/28 04:16:30;;;;;;;2.53;1.17;;;9.70;99.90;;;;;;5112658;28;20417;-69
2021/08/28 04:18:55;;;;;;;;;;;9.80;99.90;;;;;;5112984;28;20735;-68
2021/08/28 04:21:21;;;;;;;3.22;1.48;;;9.90;99.90;;;;;;5112291;28;19919;-69
2021/08/28 04:23:46;;;;;;;;;;;9.90;99.90;;;;;;5094550;28;20019;-69
2021/08/28 04:26:12;;;;;;;1.90;1.10;;;10.00;99.90;;;;;;5112332;28;19911;-69
2021/08/28 04:28:38;;;;;;;;;;;10.10;99.90;;;;;;5112630;28;20058;-69
2021/08/28 04:31:03;;;;;;;2.35;0.95;;;10.10;99.90;;;;;;5111882;28;19904;-69
2021/08/28 04:33:29;;;;;;;;;;;10.20;99.90;;;;;;5112464;28;20744;-69
2021/08/28 04:35:54;;;;;;;5.57;0.73;;;10.20;99.90;;;;;;5093721;28;20387;-69
2021/08/28 04:38:20;;;;;;;;;;;10.30;99.90;;;;;;5112470;28;20038;-69
2021/08/28 04:40:45;;;;;;;1.48;0.85;;;10.30;99.90;;;;;;5093477;28;19903;-69
2021/08/28 04:43:11;;;;;;;;;;;10.40;99.90;;;;;;5112283;28;20103;-68
2021/08/28 04:45:37;;;;;;;2.17;0.63;;;10.50;99.90;;;;;;5111939;28;20378;-69
2021/08/28 04:48:03;;;;;;;1.33;0.63;;;10.60;99.90;;;;;;5111844;28;20496;-68
2021/08/28 04:50:29;;;;;;;;;;;10.70;99.90;;;;;;5112355;28;20042;-69
2021/08/28 04:52:54;;;;;;;0.80;0.68;;;10.80;99.90;;;;;;5093286;28;20295;-68
2021/08/28 04:55:20;;;;;;;;;;;10.90;99.90;;;;;;5111988;28;20031;-69
2021/08/28 04:57:46;;;;;;;4.05;0.75;;;11.10;99.90;;;;;;5111819;28;19908;-68
2021/08/28 05:00:11;;;;;;;;;;;11.20;99.90;;;;;;5112042;28;20027;-68
2021/08/28 05:02:37;;;;;;;3.05;0.52;;;11.40;99.90;;;;;;5111715;28;19904;-69
2021/08/28 05:05:03;;;;;;;;;;;11.50;99.90;;;;;;5111915;28;20525;-68
2021/08/28 05:07:29;;;;;;;5.00;0.50;;;11.70;99.90;;;;;;5111599;28;20511;-69
2021/08/28 05:09:55;;;;;;;1.70;0.50;;;11.90;99.90;;;;;;5110538;28;20480;-68
2021/08/28 05:12:20;;;;;;;;;;;12.20;99.90;;;;;;5111925;28;20023;-69
2021/08/28 05:14:46;;;;;;;0.95;0.60;;;12.50;99.90;;;;;;5111347;28;20014;-70
2021/08/28 05:17:11;;;;;;;;;;;12.80;99.90;;;;;;5111761;28;20027;-69
2021/08/28 05:19:37;;;;;;;1.08;0.60;;;13.10;99.90;;;;;;5093082;28;19904;-69
2021/08/28 05:22:03;;;;;;;;;;;13.30;99.90;;;;;;5111537;28;20062;-69
2021/08/28 05:24:31;;;;;;;5.57;1.15;;;13.40;99.90;;;;;;5111284;28;19903;-69
2021/08/28 05:26:56;;;;;;;2.90;0.85;;;13.60;99.90;;;;;;5110970;28;20098;-69
2021/08/28 05:29:22;;;;;;;;;;;13.70;99.90;;;;;;5111446;28;20460;-69
2021/08/28 05:31:47;;;;;;;5.70;0.90;;;13.80;99.90;;;;;;5111060;28;20580;-68
2021/08/28 05:34:13;;;;;;;;;;;13.70;99.90;;;;;;5111344;28;20031;-68
2021/08/28 05:36:38;;;;;;;2.53;0.65;;;13.70;99.90;;;;;;5110971;28;20395;-69
2021/08/28 05:39:04;;;;;;;;;;;13.80;99.90;;;;;;5111232;28;20047;-69
2021/08/28 05:41:30;;;;;;;1.75;1.20;;;13.80;99.90;;;;;;5110814;28;20303;-69
2021/08/28 05:43:56;;;;;;;6.13;0.85;;;13.90;99.90;;;;;;5110778;28;20031;-69
2021/08/28 05:46:22;;;;;;;3.95;0.77;;;14.10;99.90;;;;;;5110963;28;20031;-70
2021/08/28 05:48:47;;;;;;;;;;;14.40;99.90;;;;;;5111254;28;20023;-69
2021/08/28 05:51:13;;;;;;;1.67;0.60;;;14.60;99.90;;;;;;5092280;28;19985;-69
2021/08/28 05:53:38;;;;;;;1.33;0.88;;;14.80;99.90;;;;;;5110649;28;20088;-69
2021/08/28 05:56:04;;;;;;;2.47;0.70;;;15.10;99.90;;;;;;5110626;28;20043;-70
2021/08/28 05:58:30;;;;;;;3.10;0.82;;;15.20;99.90;;;;;;5110615;28;20176;-69
2021/08/28 06:00:55;;;;;;;1.45;0.60;;;15.30;99.90;;;;;;5110347;28;20034;-69
2021/08/28 06:03:21;;;;;;;1.83;0.70;;;15.40;99.90;;;;;;5092143;28;20035;-69
2021/08/28 06:05:47;;;;;;;4.70;2.15;;;15.40;99.90;;;;;;5110408;28;20034;-69
2021/08/28 06:08:13;;;;;;;5.13;0.90;;;15.40;99.90;;;;;;5110412;28;20024;-69
2021/08/28 06:10:38;;;;;;;2.38;0.73;;;15.60;99.90;;;;;;5092040;28;20043;-69
2021/08/28 06:13:04;;;;;;;6.45;0.88;;;15.80;99.90;;;;;;5110123;28;20032;-69
2021/08/28 06:15:30;;;;;;;5.45;0.80;;;16.00;99.90;;;;;;5109986;28;20498;-70
2021/08/28 06:17:55;;;;;;;8.75;1.02;;;16.20;99.90;;;;;;5110012;28;20070;-69
2021/08/28 06:20:21;;;;;;;2.97;1.00;;;16.30;99.90;;;;;;5109981;28;20031;-69
2021/08/28 06:22:47;;;;;;;1.98;0.80;;;16.30;99.90;;;;;;5109847;28;20050;-70
2021/08/28 06:25:13;;;;;;;1.58;0.70;;;16.50;99.90;;;;;;5110020;28;20043;-69
2021/08/28 06:27:38;;;;;;;2.20;0.50;;;16.60;99.90;;;;;;5109905;28;20506;-69
2021/08/28 06:30:04;;;;;;;4.43;0.80;;;16.60;99.80;;;;;;5109757;28;20104;-69
2021/08/28 06:32:32;;;;;;;0.95;0.40;;;16.80;98.90;;;;;;5109824;28;20056;-70
2021/08/28 06:34:57;;;;;;;1.35;0.60;;;17.10;97.00;;;;;;5109519;28;20035;-69
2021/08/28 06:37:23;;;;;;;1.58;0.60;;;17.20;95.50;;;;;;5109745;28;20031;-69
2021/08/28 06:39:49;;;;;;;3.70;0.88;;;17.20;94.60;;;;;;5109854;28;20424;-69
2021/08/28 06:42:15;;;;;;;2.88;0.60;;;17.30;94.60;;;;;;5109647;28;20438;-69
2021/08/28 06:44:40;;;;;;;2.60;0.68;;;17.30;95.10;;;;;;5109675;28;20472;-69
2021/08/28 06:47:06;;;;;;;6.15;0.85;;;17.20;95.60;;;;;;5109565;28;20031;-69
2021/08/28 06:49:32;;;;;;;1.45;0.70;;;17.20;94.80;;;;;;5109457;28;20555;-69
2021/08/28 06:51:58;;;;;;;2.63;1.13;;;17.30;94.80;;;;;;5109531;28;20026;-69
2021/08/28 06:54:23;;;;;;;2.83;1.10;;;17.50;94.80;;;;;;5109342;28;20106;-69
2021/08/28 06:56:49;;;;;;;2.20;0.52;;;18.00;94.10;;;;;;5109503;28;20027;-69
2021/08/28 06:59:15;;;;;;;2.55;1.38;;;18.40;92.40;;;;;;5109415;28;20079;-69
2021/08/28 07:01:41;;;;;;;2.17;0.60;;;18.90;92.10;;;;;;5109303;28;20027;-69
2021/08/28 07:04:06;;;;;;;8.00;1.33;;;19.10;90.80;;;;;;5109166;28;20020;-70
2021/08/28 07:06:32;;;;;;;1.80;0.93;;;19.10;89.80;;;;;;5109359;28;20024;-69
2021/08/28 07:08:58;;;;;;;3.22;1.15;;;19.20;89.90;;;;;;5108874;28;20024;-70
2021/08/28 07:11:24;;;;;;;2.28;0.95;;;19.30;89.50;;;;;;5109106;28;20031;-70
2021/08/28 07:13:50;;;;;;;8.57;0.82;;;19.30;90.30;;;;;;5109212;28;20095;-70
2021/08/28 07:16:16;;;;;;;5.25;0.90;;;19.60;89.30;;;;;;5109139;28;20119;-69
2021/08/28 07:18:41;;;;;;;1.90;0.98;;;20.00;88.70;;;;;;5109041;28;20028;-69
2021/08/28 07:21:07;;;;;;;3.05;1.00;;;20.20;87.00;;;;;;5108772;28;20043;-70
2021/08/28 07:23:33;;;;;;;4.22;0.90;;;20.30;85.30;;;;;;5109186;28;20532;-70
2021/08/28 07:25:58;;;;;;;2.72;1.00;;;20.40;85.00;;;;;;5108936;28;20038;-69
2021/08/28 07:28:24;;;;;;;5.88;1.10;;;20.60;85.20;;;;;;5108842;28;20023;-69
2021/08/28 07:30:50;;;;;;;3.25;1.45;;;20.70;85.00;;;;;;5108864;28;20105;-70
2021/08/28 07:33:16;;;;;;;3.42;1.00;;;20.80;84.70;;;;;;5108246;28;20027;-70
2021/08/28 07:35:41;;;;;;;5.63;0.90;;;21.10;83.90;;;;;;5108837;28;20027;-69
2021/08/28 07:38:07;;;;;;;2.72;1.48;;;21.20;82.50;;;;;;5108821;28;20034;-68
2021/08/28 07:40:33;;;;;;;9.32;1.60;;;21.30;82.40;;;;;;5109035;28;20107;-68
2021/08/28 07:43:00;;;;;;;4.03;1.08;;;21.60;78.90;;;;;;5108654;28;20581;-67
2021/08/28 07:45:26;;;;;;;3.25;1.40;;;21.70;77.00;;;;;;5108766;28;20142;-68
2021/08/28 07:47:52;;;;;;;3.88;1.33;;;21.90;77.30;;;;;;5108870;28;20099;-67
2021/08/28 07:50:19;;;;;;;2.58;1.25;;;22.00;77.80;;;;;;5108585;28;20126;-68
2021/08/28 07:52:44;;;;;;;13.23;1.50;;;22.20;77.50;;;;;;5108633;28;20078;-68
2021/08/28 07:55:12;;;;;;;2.20;1.00;;;22.40;77.00;;;;;;5108503;28;20557;-68
2021/08/28 07:57:39;;;;;;;6.20;1.20;;;22.70;74.60;;;;;;5108664;28;20024;-69
2021/08/28 08:00:07;;;;;;;2.97;1.02;;;22.80;72.50;;;;;;5108566;28;20437;-68
2021/08/28 08:02:33;;;;;;;2.53;1.13;;;23.00;70.00;;;;;;5108520;28;20024;-69
2021/08/28 08:04:59;;;;;;;6.90;1.40;;;23.20;68.90;;;;;;5108386;28;20035;-67
2021/08/28 08:07:24;;;;;;;3.55;1.02;;;23.40;68.30;;;;;;5108627;28;20369;-70
2021/08/28 08:09:50;;;;;;;3.78;0.90;;;23.80;68.40;;;;;;5108613;28;20053;-70
2021/08/28 08:12:16;;;;;;;3.17;0.93;;;24.30;65.60;;;;;;5108482;28;20036;-68
2021/08/28 08:14:41;;;;;;;4.22;0.98;;;24.70;63.60;;;;;;5108953;28;20410;-68
2021/08/28 08:17:07;;;;;;;2.15;1.10;;;24.90;60.90;;;;;;5108357;28;20025;-67
2021/08/28 08:19:33;;;;;;;4.55;1.88;;;24.50;60.60;;;;;;5108440;28;20050;-68
2021/08/28 08:21:58;;;;;;;1.27;0.88;;;24.40;63.60;;;;;;5108378;28;20052;-70
2021/08/28 08:24:24;;;;;;;3.00;1.30;;;24.00;64.20;;;;;;5108419;28;20034;-70
2021/08/28 08:26:50;;;;;;;4.38;1.48;;;23.70;66.30;;;;;;5108347;28;20028;-70
2021/08/28 08:29:16;;;;;;;6.30;1.25;;;23.40;66.70;;;;;;5108092;28;20067;-70
2021/08/28 08:31:41;;;;;;;8.57;1.60;;;23.50;66.40;;;;;;5108336;28;20075;-68
2021/08/28 08:34:07;;;;;;;3.03;1.10;;;23.50;67.60;;;;;;5108187;28;20042;-68
2021/08/28 08:36:32;;;;;;;3.10;0.90;;;23.70;68.60;;;;;;5108361;28;20080;-69
2021/08/28 08:38:58;;;;;;;5.85;1.10;;;24.00;68.20;;;;;;5108054;28;20027;-70
2021/08/28 08:41:25;;;;;;;3.58;1.13;;;24.30;64.20;;;;;;5108196;28;20393;-70
2021/08/28 08:43:53;;;;;;;6.03;1.08;;;24.30;64.40;;;;;;5108288;28;20074;-70
2021/08/28 08:46:23;;;;;;;1.95;1.00;;;24.40;64.90;;;;;;5111818;28;20019;-70
2021/08/28 08:48:50;;;;;;;8.02;4.30;;;24.50;63.70;;;;;;5111903;28;20392;-68
2021/08/28 08:51:19;;;;;;;3.33;1.48;;;24.90;63.20;;;;;;5111667;28;20023;-68
2021/08/28 08:53:46;;;;;;;3.05;0.70;;;25.30;59.30;;;;;;5111781;28;20023;-68
2021/08/28 08:56:12;;;;;;;2.80;0.80;;;25.90;60.00;;;;;;5111760;28;20514;-69
2021/08/28 08:58:38;;;;;;;2.88;0.98;;;26.60;55.60;;;;;;5111926;28;20027;-68
2021/08/28 09:01:05;;;;;;;0.90;0.70;;;26.80;55.30;;;;;;5111502;28;20399;-68
2021/08/28 09:03:30;;;;;;;1.70;0.70;;;27.00;55.00;;;;;;5111710;28;20020;-68
2021/08/28 09:05:56;;;;;;;0.70;0.50;;;27.10;52.40;;;;;;5111782;28;20492;-68
2021/08/28 09:08:22;;;;;;;0.80;0.60;;;27.40;52.10;;;;;;5110232;28;20027;-68
2021/08/28 09:10:47;;;;;;;1.52;0.68;;;27.50;51.40;;;;;;5111526;28;20027;-68
2021/08/28 09:13:22;;;;;;;1.75;0.52;;;27.70;49.10;;;;;;5111190;28;20480;-68
2021/08/28 09:15:49;;;;;;;2.35;0.57;;;27.80;49.80;;;;;;5111325;28;20452;-68
2021/08/28 09:18:15;;;;;;;3.72;0.77;;;27.80;49.30;;;;;;5111331;28;20479;-69
2021/08/28 09:20:41;;;;;;;0.70;0.40;;;27.60;47.80;;;;;;5111024;28;20035;-68
2021/08/28 09:23:08;;;;;;;3.85;0.50;;;27.50;48.50;;;;;;5111156;28;20027;-68
2021/08/28 09:25:36;;;;;;;0.57;0.30;;;27.60;47.80;;;;;;5111054;28;20066;-67
2021/08/28 09:28:02;;;;;;;1.30;0.50;;;27.70;47.60;;;;;;5111278;28;20342;-70
2021/08/28 09:30:36;;;;;;;5.18;0.50;;;28.00;46.20;;;;;;5111171;28;20427;-68
2021/08/28 09:33:04;;;;;;;0.90;0.40;;;28.40;45.20;;;;;;5110865;28;20042;-68
2021/08/28 09:35:39;;;;;;;1.20;0.50;;;28.50;43.80;;;;;;5110869;28;20567;-67
2021/08/28 09:38:07;;;;;;;1.43;0.50;;;28.50;43.10;;;;;;5110907;28;20023;-68
2021/08/28 09:40:39;;;;;;;3.70;0.70;;;28.60;43.10;;;;;;5110818;28;20096;-68
2021/08/28 09:43:17;;;;;;;4.93;0.60;;;28.40;42.40;;;;;;5110654;28;20043;-68
2021/08/28 09:45:46;;;;;;;2.00;0.50;;;28.70;42.70;;;;;;5110759;28;20495;-69
2021/08/28 09:48:13;;;;;;;0.63;0.40;;;29.20;41.10;;;;;;5110689;28;20012;-69
2021/08/28 09:50:46;;;;;;;1.92;0.50;;;29.40;41.60;;;;;;5110690;28;20023;-68
2021/08/28 09:53:23;;;;;;;1.60;0.40;;;29.50;42.50;;;;;;5110610;28;20037;-68
2021/08/28 09:55:58;;;;;;;0.85;0.40;;;29.60;39.80;;;;;;5110222;28;20499;-69
2021/08/28 09:58:26;;;;;;;2.00;0.70;;;29.50;39.90;;;;;;5110532;28;20103;-69
2021/08/28 10:00:51;;;;;;;1.05;0.60;;;29.40;41.40;;;;;;5110500;28;20131;-68
2021/08/28 10:03:18;;;;;;;0.50;0.40;;;29.60;42.10;;;;;;5110273;28;20115;-68
2021/08/28 10:05:47;;;;;;;1.10;0.60;;;29.50;41.60;;;;;;5091915;28;20032;-68
2021/08/28 10:08:15;;;;;;;1.20;0.50;;;29.30;41.50;;;;;;5110444;28;20028;-68
2021/08/28 10:10:41;;;;;;;2.10;0.70;;;29.20;41.10;;;;;;5110107;28;20019;-67
2021/08/28 10:13:07;;;;;;;0.82;0.43;;;28.70;41.10;;;;;;5110290;28;20039;-67
2021/08/28 10:15:35;;;;;;;1.65;0.55;;;28.50;42.10;;;;;;5110078;28;20024;-68
2021/08/28 10:18:04;;;;;;;0.80;0.40;;;28.30;41.50;;;;;;5110226;28;20030;-68
2021/08/28 10:20:31;;;;;;;0.63;0.50;;;27.60;43.20;;;;;;5109966;28;20106;-70
2021/08/28 10:23:01;;;;;;;3.38;0.57;;;26.70;44.10;;;;;;5109951;28;20388;-69
2021/08/28 10:25:29;;;;;;;3.63;0.88;;;26.30;45.60;;;;;;5109894;28;20116;-68
2021/08/28 10:27:55;;;;;;;3.00;0.75;;;25.80;46.90;;;;;;5110024;28;20023;-68
2021/08/28 10:30:23;;;;;;;1.65;0.73;;;25.50;48.00;;;;;;5109841;28;20062;-67
2021/08/28 10:32:50;;;;;;;1.13;0.50;;;25.30;49.60;;;;;;5109938;28;20031;-67
2021/08/28 10:35:18;;;;;;;1.17;0.60;;;25.30;48.50;;;;;;5109808;28;20594;-66
2021/08/28 10:37:44;;;;;;;2.38;0.70;;;24.90;49.80;;;;;;5109992;28;20092;-68
2021/08/28 10:40:14;;;;;;;1.10;0.50;;;24.90;49.50;;;;;;5110109;28;20417;-68
2021/08/28 10:42:41;;;;;;;1.33;0.77;;;24.60;50.10;;;;;;5109765;28;20050;-68
2021/08/28 10:45:08;;;;;;;2.00;0.57;;;24.50;50.80;;;;;;5109469;28;20118;-68
2021/08/28 10:47:34;;;;;;;2.08;0.70;;;24.20;50.30;;;;;;5109719;28;20023;-68
2021/08/28 10:50:11;;;;;;;2.65;0.70;;;24.10;51.70;;;;;;5109438;28;20027;-68
2021/08/28 10:52:39;;;;;;;3.13;0.90;;;23.90;53.10;;;;;;5109501;28;20488;-68
2021/08/28 10:55:12;;;;;;;0.95;0.60;;;23.60;53.70;;;;;;5091080;28;20119;-68
2021/08/28 10:57:38;;;;;;;1.33;0.73;;;23.70;54.40;;;;;;5109345;28;20042;-68
2021/08/28 11:00:04;;;;;;;3.88;1.13;;;23.80;55.20;;;;;;5109301;28;20031;-67
2021/08/28 11:02:48;;;;;;;1.50;0.80;;;23.90;53.60;;;;;;5109315;28;20032;-68
2021/08/28 11:05:20;;;;;;;2.22;1.02;;;24.00;54.20;;;;;;5109122;28;20035;-67
2021/08/28 11:07:46;;;;;;;1.13;0.63;;;24.00;53.90;;;;;;5107227;28;20567;-68
2021/08/28 11:10:20;;;;;;;1.88;0.80;;;23.90;53.00;;;;;;5109060;28;20031;-67
2021/08/28 11:13:09;;;;;;;1.90;0.60;;;23.70;53.80;;;;;;5109648;28;20019;-68
2021/08/28 11:15:34;;;;;;;0.90;0.50;;;23.70;53.60;;;;;;5109136;28;20173;-68
2021/08/28 11:18:13;;;;;;;0.73;0.60;;;23.60;54.60;;;;;;5107964;28;20559;-69
2021/08/28 11:20:44;;;;;;;2.67;0.82;;;23.60;53.80;;;;;;5108940;28;20448;-68
2021/08/28 11:23:16;;;;;;;4.07;0.50;;;23.40;54.50;;;;;;5090639;28;20027;-68
2021/08/28 11:25:44;;;;;;;1.50;0.55;;;23.40;56.20;;;;;;5108927;28;20040;-68
2021/08/28 11:28:11;;;;;;;2.05;0.82;;;23.60;55.20;;;;;;5107622;28;20107;-68
2021/08/28 11:30:41;;;;;;;1.88;0.60;;;23.70;53.50;;;;;;5109030;28;20563;-67
2021/08/28 11:33:16;;;;;;;2.63;0.60;;;23.70;53.20;;;;;;5108839;28;20495;-68
2021/08/28 11:35:47;;;;;;;4.97;0.52;;;23.80;52.90;;;;;;5108937;28;20119;-68
2021/08/28 11:38:13;;;;;;;0.70;0.50;;;23.90;52.70;;;;;;5108824;28;20027;-68
2021/08/28 11:40:40;;;;;;;4.90;0.50;;;24.00;52.60;;;;;;5108902;28;20507;-68
2021/08/28 11:43:09;;;;;;;1.02;0.50;;;24.10;51.80;;;;;;5108687;28;20052;-68
2021/08/28 11:45:40;;;;;;;2.58;0.60;;;24.10;51.40;;;;;;5108506;28;20069;-68
2021/08/28 11:48:13;;;;;;;1.48;0.60;;;24.20;52.10;;;;;;5090498;28;20116;-67
2021/08/28 11:50:41;;;;;;;1.63;0.70;;;24.40;51.70;;;;;;5107209;28;20062;-68
2021/08/28 11:53:07;;;;;;;2.60;0.60;;;24.50;49.20;;;;;;5108575;28;20028;-68
2021/08/28 11:55:35;;;;;;;1.52;0.60;;;24.10;48.80;;;;;;5108559;28;20442;-68
2021/08/28 11:58:13;;;;;;;2.90;0.65;;;24.00;50.60;;;;;;5108605;28;20491;-68
2021/08/28 12:00:38;;;;;;;2.25;0.50;;;24.00;50.90;;;;;;5108544;28;20035;-68
2021/08/28 12:03:06;;;;;;;1.92;0.50;;;23.90;52.50;;;;;;5108532;28;20036;-68
2021/08/28 12:05:34;;;;;;;1.85;0.52;;;23.90;50.70;;;;;;5108646;28;20035;-68
2021/08/28 12:08:00;;;;;;;0.70;0.40;;;23.70;51.10;;;;;;5107368;28;20024;-67
2021/08/28 12:10:26;;;;;;;1.52;0.50;;;23.50;52.00;;;;;;5108502;28;20038;-68
2021/08/28 12:12:56;;;;;;;2.83;0.63;;;23.30;51.50;;;;;;5108567;28;20023;-67
2021/08/28 12:15:23;;;;;;;1.25;0.47;;;23.40;51.20;;;;;;5107216;28;20073;-68
2021/08/28 12:17:50;;;;;;;0.73;0.50;;;23.00;51.80;;;;;;5108575;28;20051;-68
2021/08/28 12:20:23;;;;;;;1.67;0.60;;;23.20;53.60;;;;;;5092347;28;20078;-67
2021/08/28 12:22:50;;;;;;;0.90;0.60;;;23.40;52.90;;;;;;5112653;28;20047;-68
2021/08/28 12:25:16;;;;;;;3.35;0.50;;;23.20;53.20;;;;;;5112091;28;20035;-68
2021/08/28 12:27:46;;;;;;;1.88;0.88;;;23.10;53.40;;;;;;5112406;28;20016;-68
2021/08/28 12:30:12;;;;;;;2.38;0.70;;;22.90;53.40;;;;;;5112101;28;20060;-67
2021/08/28 12:32:38;;;;;;;8.50;0.70;;;23.00;54.90;;;;;;5112090;28;20020;-68
2021/08/28 12:35:04;;;;;;;1.25;0.63;;;23.00;54.50;;;;;;5112106;28;20043;-68
2021/08/28 12:37:31;;;;;;;1.52;0.93;;;23.00;55.20;;;;;;5111848;28;20024;-68
2021/08/28 12:39:59;;;;;;;1.00;0.57;;;23.00;55.30;;;;;;5112060;28;20100;-68
2021/08/28 12:42:29;;;;;;;1.55;0.68;;;22.90;55.40;;;;;;5112028;28;20028;-68
2021/08/28 12:45:00;;;;;;;2.45;0.60;;;22.80;55.90;;;;;;5111836;28;20040;-67
2021/08/28 12:47:32;;;;;;;2.08;0.70;;;22.60;54.90;;;;;;5111903;28;20074;-65
2021/08/28 12:49:58;;;;;;;1.08;0.95;;;22.50;55.60;;;;;;5111841;28;20072;-68
2021/08/28 12:52:38;;;;;;;6.68;0.63;;;22.60;56.90;;;;;;5111953;28;20039;-67
2021/08/28 12:55:04;;;;;;;1.60;0.70;;;22.60;58.20;;;;;;5111763;28;20496;-67
2021/08/28 12:57:30;;;;;;;1.30;0.50;;;22.50;57.90;;;;;;5111738;28;20514;-68
2021/08/28 12:59:58;;;;;;;1.05;0.70;;;22.50;58.80;;;;;;5111733;28;20043;-68